Current Conditions
Partly Cloudy
Conditions



Pressure
1018.92 (hPa) - 30.09 (inHG)
Visibility

10.0 (km) - 6.2 (miles)
Temperature
17  °C
Temperature
10  °C
Dewpoint
64  %
 Humidity
Wind Speed
3.6  m/s
8  mph
13  km/h
7  kts
Wind Direction
N
45°
E
90°
135°
S
180°
225°
W
270°
315°
 170°

Due South
Airport Data
EBDT
Schaffen Airfield
Metar :EBDT 281625Z AUTO 17007KT 9999 FEW150/// SCT180/// 17/10 Q1019 BLU
Tue 28th September 18:25 pm
Raw Metar Info
Raw METAR is the most common format in the world for the transmission of observational weather data. It is highly standardized through the International Civil Aviation Organization (ICAO), which allows it to be understood throughout most of the world.
API Info
Data Provided by
https://www.checkwx.com/weather/EBDT

Aviation Weather providing METAR, TAF, AIRMET, SIGMET and OUTLOOK Weather Reports
© Info
CSS/SVG/PHP scripts were developed by weather34.com for use in the weather34 template © 2015-2021

Guide Info provided by Metar-Wikipedia